Terminal Aerodrome Forecast
Issued by NWS

Home | Current Version | Previous Version | Graphics & Text | Print | Product List | Glossary On
Versions: 1 2 3 4 5 6 7 8 9 10 11 12 13 14 15 16
000
FTUS43 KICT 030821 AAC
TAFSLN
TAF AMD
KSLN 030821Z 0308/0406 18014G20KT P6SM BKN100
     FM031500 18017G26KT P6SM SCT100
     FM031800 19023G33KT P6SM SCT200
     FM040100 18014KT P6SM SCT200=

USA.gov is the U.S. government's official web portal to all federal, state and local government web resources and services.